createdAt,value
2022-11-28T00:01:43.469Z,100923.63
2022-11-28T00:04:11.070Z,100929.75
2022-11-28T00:06:45.333Z,100931.19
2022-11-28T00:09:13.693Z,100933.09
2022-11-28T00:11:42.310Z,100930.16
2022-11-28T00:14:09.851Z,100938.75
2022-11-28T00:16:36.809Z,100940.50
2022-11-28T00:19:06.879Z,100934.31
2022-11-28T00:21:38.041Z,100935.88
2022-11-28T00:24:05.370Z,100932.16
2022-11-28T00:26:42.318Z,100933.84
2022-11-28T00:29:10.117Z,100930.69
2022-11-28T00:31:42.747Z,100934.53
2022-11-28T00:34:12.320Z,100934.31
2022-11-28T00:36:38.850Z,100940.22
2022-11-28T00:39:10.346Z,100938.94
2022-11-28T00:41:37.102Z,100934.63
2022-11-28T00:44:08.460Z,100937.72
2022-11-28T00:46:35.710Z,100929.44
2022-11-28T00:49:02.238Z,100933.50
2022-11-28T00:51:33.141Z,100929.34
2022-11-28T00:54:01.217Z,100938.53
2022-11-28T00:56:30.947Z,100936.38
2022-11-28T00:59:00.711Z,100940.34
2022-11-28T01:01:33.537Z,100943.22
2022-11-28T01:04:04.858Z,100940.16
2022-11-28T01:06:34.613Z,100945.25
2022-11-28T01:09:05.080Z,100945.59
2022-11-28T01:11:34.484Z,100938.88
2022-11-28T01:14:04.789Z,100935.16
2022-11-28T01:16:35.064Z,100937.94
2022-11-28T01:19:01.738Z,100938.81
2022-11-28T01:21:28.894Z,100926.88
2022-11-28T01:23:55.515Z,100925.66
2022-11-28T01:26:25.307Z,100926.81
2022-11-28T01:28:52.409Z,100925.66
2022-11-28T01:31:22.462Z,100923.91
2022-11-28T01:33:49.757Z,100921.94
2022-11-28T01:36:20.087Z,100926.47
2022-11-28T01:38:49.368Z,100917.25
2022-11-28T01:41:22.181Z,100925.03
2022-11-28T01:44:10.527Z,100915.78
2022-11-28T01:46:39.906Z,100907.97
2022-11-28T01:49:13.529Z,100906.47
2022-11-28T01:51:44.675Z,100898.28
2022-11-28T01:54:14.883Z,100893.78
2022-11-28T01:56:51.301Z,100888.22
2022-11-28T01:59:20.536Z,100898.59
2022-11-28T02:01:49.414Z,100887.25
2022-11-28T02:04:16.040Z,100882.56
2022-11-28T02:06:45.229Z,100884.56
2022-11-28T02:09:16.420Z,100884.56
2022-11-28T02:12:01.880Z,100883.13
2022-11-28T02:15:04.063Z,100878.03
2022-11-28T02:17:51.975Z,100871.03
2022-11-28T02:20:39.956Z,100870.38
2022-11-28T02:23:23.925Z,100872.63
2022-11-28T02:26:26.755Z,100866.53
2022-11-28T02:29:12.067Z,100871.97
2022-11-28T02:32:17.444Z,100861.47
2022-11-28T02:34:57.896Z,100864.16
2022-11-28T02:37:37.181Z,100866.53
2022-11-28T02:40:14.701Z,100861.44
2022-11-28T02:43:18.752Z,100864.31
2022-11-28T02:45:58.130Z,100856.50
2022-11-28T02:48:49.332Z,100854.06
2022-11-28T02:51:31.176Z,100848.69
2022-11-28T02:53:59.906Z,100851.59
2022-11-28T02:56:26.631Z,100844.41
2022-11-28T02:58:57.849Z,100852.88
2022-11-28T03:01:31.992Z,100852.72
2022-11-28T03:04:18.491Z,100845.53
2022-11-28T03:07:09.878Z,100843.72
2022-11-28T03:10:13.915Z,100850.63
2022-11-28T03:13:01.861Z,100841.66
2022-11-28T03:15:44.542Z,100841.69
2022-11-28T03:18:20.433Z,100841.25
2022-11-28T03:20:48.470Z,100839.16
2022-11-28T03:23:19.635Z,100839.22
2022-11-28T03:26:00.183Z,100834.69
2022-11-28T03:28:43.860Z,100828.16
2022-11-28T03:31:29.582Z,100827.22
2022-11-28T03:33:59.642Z,100831.56
2022-11-28T03:36:34.514Z,100818.41
2022-11-28T03:39:14.095Z,100815.31
2022-11-28T03:42:03.133Z,100810.16
2022-11-28T03:44:35.647Z,100805.69
2022-11-28T03:47:05.251Z,100802.19
2022-11-28T03:49:37.824Z,100791.31
2022-11-28T03:52:12.395Z,100785.88
2022-11-28T03:55:11.288Z,100791.88
2022-11-28T03:57:59.827Z,100787.25
2022-11-28T04:00:29.964Z,100787.81
2022-11-28T04:03:09.515Z,100783.44
2022-11-28T04:05:48.344Z,100779.16
2022-11-28T04:08:19.346Z,100779.94
2022-11-28T04:10:58.305Z,100776.59
2022-11-28T04:13:53.032Z,100774.59
2022-11-28T04:16:38.505Z,100770.84
2022-11-28T04:19:14.566Z,100767.00
2022-11-28T04:21:46.473Z,100775.13
2022-11-28T04:24:20.983Z,100768.22
2022-11-28T04:27:10.634Z,100772.50
2022-11-28T04:29:47.767Z,100762.19
2022-11-28T04:32:19.570Z,100764.00
2022-11-28T04:34:52.911Z,100770.22
2022-11-28T04:37:24.781Z,100761.31
2022-11-28T04:39:52.609Z,100762.41
2022-11-28T04:42:38.001Z,100769.69
2022-11-28T04:45:22.112Z,100767.03
2022-11-28T04:47:48.944Z,100769.75
2022-11-28T04:50:17.975Z,100763.88
2022-11-28T04:53:14.584Z,100767.69
2022-11-28T04:55:45.273Z,100754.13
2022-11-28T04:58:18.509Z,100757.50
2022-11-28T05:00:47.251Z,100767.09
2022-11-28T05:03:14.245Z,100766.88
2022-11-28T05:05:51.360Z,100760.97
2022-11-28T05:08:19.039Z,100764.34
2022-11-28T05:10:48.795Z,100758.63
2022-11-28T05:13:15.521Z,100765.13
2022-11-28T05:15:44.357Z,100766.06
2022-11-28T05:18:11.080Z,100777.16
2022-11-28T05:20:38.546Z,100768.81
2022-11-28T05:23:07.673Z,100765.47
2022-11-28T05:25:34.289Z,100767.91
2022-11-28T05:28:00.870Z,100762.66
2022-11-28T05:30:27.394Z,100775.66
2022-11-28T05:32:53.985Z,100767.81
2022-11-28T05:35:25.441Z,100772.91
2022-11-28T05:37:56.599Z,100776.84
2022-11-28T05:40:23.369Z,100781.44
2022-11-28T05:42:54.762Z,100779.78
2022-11-28T05:45:21.357Z,100784.38
2022-11-28T05:47:47.899Z,100793.56
2022-11-28T05:50:14.560Z,100791.72
2022-11-28T05:52:41.137Z,100795.63
2022-11-28T05:55:12.726Z,100786.66
2022-11-28T05:57:39.245Z,100791.88
2022-11-28T06:00:09.216Z,100790.34
2022-11-28T06:02:38.833Z,100798.06
2022-11-28T06:05:34.797Z,100789.34
2022-11-28T06:07:57.413Z,100786.88
2022-11-28T06:10:24.055Z,100788.47
2022-11-28T06:12:52.773Z,100784.72
2022-11-28T06:15:19.363Z,100792.50
2022-11-28T06:17:45.866Z,100784.38
2022-11-28T06:20:12.482Z,100790.13
2022-11-28T06:22:39.022Z,100794.09
2022-11-28T06:25:10.447Z,100789.00
2022-11-28T06:27:36.934Z,100797.06
2022-11-28T06:30:04.037Z,100790.94
2022-11-28T06:32:30.672Z,100786.13
2022-11-28T06:34:57.200Z,100787.72
2022-11-28T06:37:23.786Z,100791.09
2022-11-28T06:39:51.282Z,100796.63
2022-11-28T06:42:18.312Z,100801.59
2022-11-28T06:44:47.369Z,100798.09
2022-11-28T06:47:18.668Z,100802.47
2022-11-28T06:49:50.433Z,100800.66
2022-11-28T06:52:19.157Z,100808.50
2022-11-28T06:54:50.981Z,100804.16
2022-11-28T06:57:17.552Z,100805.88
2022-11-28T06:59:44.167Z,100803.34
2022-11-28T07:02:13.436Z,100811.91
2022-11-28T07:04:40.077Z,100804.59
2022-11-28T07:07:12.524Z,100812.53
2022-11-28T07:09:44.445Z,100808.28
2022-11-28T07:12:13.813Z,100815.94
2022-11-28T07:14:45.237Z,100806.38
2022-11-28T07:17:16.411Z,100805.25
2022-11-28T07:19:43.177Z,100800.16
2022-11-28T07:22:12.153Z,100805.25
2022-11-28T07:24:38.746Z,100808.09
2022-11-28T07:27:07.539Z,100807.78
2022-11-28T07:29:36.803Z,100811.66
2022-11-28T07:32:05.717Z,100809.19
2022-11-28T07:34:35.429Z,100808.84
2022-11-28T07:37:06.845Z,100804.25
2022-11-28T07:39:35.657Z,100799.34
2022-11-28T07:42:02.164Z,100797.88
2022-11-28T07:44:28.698Z,100797.81
2022-11-28T07:46:55.269Z,100798.78
2022-11-28T07:49:21.959Z,100786.03
2022-11-28T07:51:50.792Z,100791.06
2022-11-28T07:54:19.567Z,100781.97
2022-11-28T07:59:35.422Z,100781.03
2022-11-28T08:02:04.495Z,100776.28
2022-11-28T08:04:31.105Z,100785.19
2022-11-28T08:06:59.823Z,100774.38
2022-11-28T08:09:26.355Z,100776.66
2022-11-28T08:11:52.891Z,100782.63
2022-11-28T08:14:24.684Z,100785.66
2022-11-28T08:16:51.565Z,100779.28
2022-11-28T08:19:24.607Z,100779.47
2022-11-28T08:21:51.374Z,100778.34
2022-11-28T08:24:18.056Z,100781.69
2022-11-28T08:26:44.570Z,100789.88
2022-11-28T08:29:13.537Z,100785.59
2022-11-28T08:31:40.630Z,100788.88
2022-11-28T08:34:10.705Z,100789.75
2022-11-28T08:36:37.248Z,100797.59
2022-11-28T08:41:52.175Z,100803.50
2022-11-28T08:44:21.967Z,100800.00
2022-11-28T08:46:50.782Z,100802.63
2022-11-28T08:49:19.679Z,100803.16
2022-11-28T08:51:48.657Z,100796.81
2022-11-28T08:54:15.194Z,100791.22
2022-11-28T08:56:41.773Z,100805.44
2022-11-28T08:59:08.295Z,100799.06
2022-11-28T09:01:39.520Z,100799.59
2022-11-28T09:04:06.205Z,100795.22
2022-11-28T09:06:32.816Z,100791.56
2022-11-28T09:09:02.031Z,100793.31
2022-11-28T09:11:28.434Z,100790.75
2022-11-28T09:13:55.757Z,100785.31
2022-11-28T09:16:22.989Z,100785.97
2022-11-28T09:18:49.593Z,100783.59
2022-11-28T09:21:16.116Z,100783.28
2022-11-28T09:23:44.350Z,100778.47
2022-11-28T09:26:19.816Z,100777.94
2022-11-28T09:28:46.343Z,100779.47
2022-11-28T09:31:13.891Z,100777.59
2022-11-28T09:33:40.980Z,100779.47
2022-11-28T09:36:12.303Z,100776.75
2022-11-28T09:38:39.115Z,100768.00
2022-11-28T09:41:22.037Z,100771.56
2022-11-28T09:43:55.068Z,100772.91
2022-11-28T09:46:31.186Z,100769.03
2022-11-28T09:49:02.645Z,100764.34
2022-11-28T09:51:55.680Z,100762.66
2022-11-28T09:54:48.486Z,100759.97
2022-11-28T09:57:48.683Z,100754.31
2022-11-28T10:00:24.535Z,100744.28
2022-11-28T10:03:25.302Z,100746.66
2022-11-28T10:06:27.325Z,100743.81
2022-11-28T10:09:12.375Z,100744.75
2022-11-28T10:12:10.406Z,100743.94
2022-11-28T10:15:08.625Z,100744.41
2022-11-28T10:18:06.601Z,100741.88
2022-11-28T10:20:39.432Z,100740.75
2022-11-28T10:23:24.145Z,100739.88
2022-11-28T10:25:56.633Z,100731.53
2022-11-28T10:28:35.490Z,100726.03
2022-11-28T10:31:32.538Z,100728.00
2022-11-28T10:34:23.944Z,100734.63
2022-11-28T10:36:55.813Z,100726.03
2022-11-28T10:39:22.503Z,100719.47
2022-11-28T10:42:12.033Z,100719.66
2022-11-28T10:44:49.546Z,100713.69
2022-11-28T10:47:43.712Z,100713.69
2022-11-28T10:50:38.590Z,100702.63
2022-11-28T10:53:20.138Z,100705.38
2022-11-28T10:56:22.495Z,100701.66
2022-11-28T10:59:21.246Z,100699.78
2022-11-28T11:01:52.364Z,100688.22
2022-11-28T11:04:27.287Z,100682.75
2022-11-28T11:07:16.288Z,100684.16
2022-11-28T11:09:48.628Z,100681.47
2022-11-28T11:12:27.022Z,100683.72
2022-11-28T11:14:58.859Z,100681.09
2022-11-28T11:17:37.852Z,100680.97
2022-11-28T11:20:22.788Z,100677.00
2022-11-28T11:23:03.317Z,100675.69
2022-11-28T11:25:32.569Z,100680.53
2022-11-28T11:28:02.698Z,100680.44
2022-11-28T11:30:35.565Z,100673.06
2022-11-28T11:33:07.482Z,100675.41
2022-11-28T11:35:39.239Z,100675.56
2022-11-28T11:38:37.936Z,100671.22
2022-11-28T11:41:44.474Z,100670.91
2022-11-28T11:44:13.699Z,100669.16
2022-11-28T11:47:01.767Z,100673.63
2022-11-28T11:49:29.510Z,100672.34
2022-11-28T11:52:15.254Z,100676.34
2022-11-28T11:54:57.045Z,100673.81
2022-11-28T11:57:47.097Z,100668.47
2022-11-28T12:00:13.615Z,100667.84
2022-11-28T12:02:43.509Z,100657.47
2022-11-28T12:05:15.382Z,100657.03
2022-11-28T12:07:48.881Z,100659.38
2022-11-28T12:10:19.628Z,100658.56
2022-11-28T12:12:46.243Z,100654.66
2022-11-28T12:15:20.447Z,100656.91
2022-11-28T12:18:20.314Z,100647.00
2022-11-28T12:20:49.153Z,100648.75
2022-11-28T12:23:45.256Z,100644.16
2022-11-28T12:26:24.704Z,100644.41
2022-11-28T12:29:21.705Z,100639.28
2022-11-28T12:32:45.531Z,100634.09
2022-11-28T12:35:22.951Z,100632.00
2022-11-28T12:38:10.667Z,100633.34
2022-11-28T12:40:59.316Z,100634.03
2022-11-28T12:44:11.646Z,100626.69
2022-11-28T12:46:47.904Z,100624.88
2022-11-28T12:49:19.870Z,100631.22
2022-11-28T12:52:10.848Z,100634.19
2022-11-28T12:55:03.248Z,100632.44
2022-11-28T12:57:38.675Z,100625.00
2022-11-28T13:00:10.577Z,100618.59
2022-11-28T13:02:42.905Z,100619.47
2022-11-28T13:05:28.355Z,100623.69
2022-11-28T13:08:25.952Z,100616.06
2022-11-28T13:11:33.246Z,100620.03
2022-11-28T13:14:21.388Z,100612.13
2022-11-28T13:16:50.945Z,100613.38
2022-11-28T13:19:55.215Z,100608.53
2022-11-28T13:22:30.814Z,100612.69
2022-11-28T13:25:19.942Z,100610.72
2022-11-28T13:28:01.287Z,100611.75
2022-11-28T13:30:31.540Z,100604.63
2022-11-28T13:33:25.129Z,100601.56
2022-11-28T13:35:53.210Z,100600.69
2022-11-28T13:38:36.742Z,100604.47
2022-11-28T13:42:03.554Z,100604.19
2022-11-28T13:44:25.901Z,100603.88
2022-11-28T13:46:52.483Z,100611.31
2022-11-28T13:49:21.333Z,100602.75
2022-11-28T13:51:48.551Z,100607.53
2022-11-28T13:54:18.267Z,100611.59
2022-11-28T13:57:09.019Z,100613.19
2022-11-28T13:59:36.907Z,100603.31
2022-11-28T14:02:16.152Z,100598.34
2022-11-28T14:04:48.489Z,100604.59
2022-11-28T14:07:33.204Z,100600.06
2022-11-28T14:10:12.867Z,100601.13
2022-11-28T14:13:13.320Z,100596.88
2022-11-28T14:16:00.871Z,100597.28
2022-11-28T14:19:02.600Z,100592.75
2022-11-28T14:21:59.687Z,100598.22
2022-11-28T14:24:56.882Z,100601.75
2022-11-28T14:27:35.465Z,100599.19
2022-11-28T14:30:02.593Z,100593.13
2022-11-28T14:32:58.421Z,100593.16
2022-11-28T14:35:49.864Z,100596.53
2022-11-28T14:38:31.500Z,100580.44
2022-11-28T14:41:03.377Z,100585.56
2022-11-28T14:43:32.609Z,100589.09
2022-11-28T14:46:24.451Z,100591.38
2022-11-28T14:48:59.988Z,100595.75
2022-11-28T14:51:47.793Z,100588.50
2022-11-28T14:54:25.534Z,100586.22
2022-11-28T14:56:58.202Z,100584.09
2022-11-28T14:59:32.872Z,100591.06
2022-11-28T15:02:11.538Z,100584.06
2022-11-28T15:04:40.844Z,100595.84
2022-11-28T15:07:16.462Z,100583.59
2022-11-28T15:09:56.181Z,100592.31
2022-11-28T15:12:33.512Z,100598.28
2022-11-28T15:15:00.144Z,100597.91
2022-11-28T15:17:33.419Z,100599.09
2022-11-28T15:20:15.176Z,100611.41
2022-11-28T15:22:43.500Z,100607.94
2022-11-28T15:25:24.538Z,100606.97
2022-11-28T15:27:55.462Z,100611.59
2022-11-28T15:30:28.768Z,100605.19
2022-11-28T15:33:00.209Z,100603.75
2022-11-28T15:35:27.876Z,100604.91
2022-11-28T15:37:57.310Z,100604.47
2022-11-28T15:40:36.626Z,100606.47
2022-11-28T15:43:09.569Z,100605.84
2022-11-28T15:45:42.208Z,100610.78
2022-11-28T15:48:25.233Z,100611.69
2022-11-28T15:50:54.175Z,100614.28
2022-11-28T15:53:21.534Z,100610.78
2022-11-28T15:56:06.670Z,100618.06
2022-11-28T15:58:38.087Z,100617.84
2022-11-28T16:01:23.976Z,100624.44
2022-11-28T16:03:57.234Z,100617.16
2022-11-28T16:06:29.348Z,100624.94
2022-11-28T16:09:09.346Z,100622.22
2022-11-28T16:11:44.032Z,100625.06
2022-11-28T16:14:21.358Z,100625.94
2022-11-28T16:16:48.168Z,100625.66
2022-11-28T16:19:32.874Z,100622.50
2022-11-28T16:22:13.833Z,100627.09
2022-11-28T16:24:46.310Z,100632.06
2022-11-28T16:27:34.235Z,100626.00
2022-11-28T16:30:24.415Z,100628.56
2022-11-28T16:32:52.518Z,100624.75
2022-11-28T16:35:38.966Z,100615.25
2022-11-28T16:38:09.780Z,100625.75
2022-11-28T16:40:38.708Z,100621.72
2022-11-28T16:43:06.246Z,100626.66
2022-11-28T16:45:33.958Z,100625.69
2022-11-28T16:48:02.763Z,100619.75
2022-11-28T16:50:29.284Z,100621.75
2022-11-28T16:52:57.836Z,100617.94
2022-11-28T16:55:29.687Z,100623.22
2022-11-28T16:58:13.133Z,100624.97
2022-11-28T17:00:43.916Z,100626.34
2022-11-28T17:03:49.057Z,100625.38
2022-11-28T17:06:23.901Z,100621.97
2022-11-28T17:08:53.172Z,100631.19
2022-11-28T17:11:26.598Z,100628.22
2022-11-28T17:13:56.168Z,100623.00
2022-11-28T17:16:27.737Z,100624.28
2022-11-28T17:18:54.363Z,100630.28
2022-11-28T17:21:33.162Z,100628.66
2022-11-28T17:24:05.147Z,100621.97
2022-11-28T17:26:33.985Z,100629.84
2022-11-28T17:29:00.477Z,100624.97
2022-11-28T17:31:29.340Z,100633.16
2022-11-28T17:33:58.337Z,100628.94
2022-11-28T17:36:24.896Z,100632.28
2022-11-28T17:38:51.480Z,100636.09
2022-11-28T17:41:18.293Z,100631.63
2022-11-28T17:43:44.861Z,100635.34
2022-11-28T17:46:11.449Z,100630.41
2022-11-28T17:48:38.003Z,100640.72
2022-11-28T17:51:05.511Z,100647.03
2022-11-28T17:53:32.019Z,100636.72
2022-11-28T17:55:59.875Z,100633.22
2022-11-28T17:58:29.208Z,100624.47
2022-11-28T18:01:00.739Z,100633.38
2022-11-28T18:03:32.546Z,100629.88
2022-11-28T18:06:01.347Z,100627.25
2022-11-28T18:08:27.954Z,100640.38
2022-11-28T18:11:09.815Z,100645.50
2022-11-28T18:13:36.506Z,100638.09
2022-11-28T18:16:03.462Z,100642.88
2022-11-28T18:18:30.438Z,100637.16
2022-11-28T18:20:56.979Z,100640.00
2022-11-28T18:23:25.759Z,100644.78
2022-11-28T18:25:52.315Z,100640.00
2022-11-28T18:28:20.467Z,100641.81
2022-11-28T18:30:47.782Z,100640.63
2022-11-28T18:33:15.580Z,100638.44
2022-11-28T18:35:42.760Z,100635.84
2022-11-28T18:38:12.066Z,100641.44
2022-11-28T18:40:39.016Z,100635.75
2022-11-28T18:43:08.168Z,100643.00
2022-11-28T18:45:35.279Z,100633.72
2022-11-28T18:48:03.945Z,100654.41
2022-11-28T18:50:30.491Z,100641.63
2022-11-28T18:52:57.077Z,100647.25
2022-11-28T18:55:23.668Z,100648.09
2022-11-28T18:57:53.271Z,100647.13
2022-11-28T19:00:20.553Z,100644.78
2022-11-28T19:02:49.677Z,100639.97
2022-11-28T19:05:16.313Z,100637.88
2022-11-28T19:07:42.981Z,100637.25
2022-11-28T19:10:12.691Z,100637.25
2022-11-28T19:12:41.532Z,100637.25
2022-11-28T19:15:11.660Z,100635.16
2022-11-28T19:17:40.586Z,100636.56
2022-11-28T19:20:11.140Z,100641.63
2022-11-28T19:22:40.058Z,100638.28
2022-11-28T19:25:07.738Z,100636.97
2022-11-28T19:27:36.791Z,100627.25
2022-11-28T19:30:06.651Z,100634.97
2022-11-28T19:32:33.302Z,100639.59
2022-11-28T19:35:04.652Z,100638.09
2022-11-28T19:37:33.877Z,100646.19
2022-11-28T19:40:05.274Z,100640.75
2022-11-28T19:42:34.252Z,100644.25
2022-11-28T19:45:03.265Z,100639.16
2022-11-28T19:47:29.829Z,100643.72
2022-11-28T19:49:58.753Z,100641.13
2022-11-28T19:52:28.065Z,100647.56
2022-11-28T19:54:56.983Z,100648.38
2022-11-28T19:57:26.471Z,100643.53
2022-11-28T19:59:52.963Z,100639.16
2022-11-28T20:02:23.429Z,100646.34
2022-11-28T20:04:50.020Z,100641.72
2022-11-28T20:07:19.292Z,100644.78
2022-11-28T20:09:45.936Z,100641.13
2022-11-28T20:12:17.569Z,100645.09
2022-11-28T20:14:46.687Z,100640.38
2022-11-28T20:17:13.404Z,100638.09
2022-11-28T20:19:45.247Z,100643.69
2022-11-28T20:22:14.451Z,100641.59
2022-11-28T20:24:43.572Z,100642.66
2022-11-28T20:27:12.642Z,100637.75
2022-11-28T20:29:39.396Z,100639.69
2022-11-28T20:32:08.682Z,100643.53
2022-11-28T20:34:35.143Z,100637.34
2022-11-28T20:37:02.327Z,100638.66
2022-11-28T20:39:33.687Z,100641.97
2022-11-28T20:42:00.679Z,100633.91
2022-11-28T20:44:27.580Z,100637.78
2022-11-28T20:46:56.466Z,100639.00
2022-11-28T20:49:23.189Z,100640.25
2022-11-28T20:51:57.747Z,100640.38
2022-11-28T20:54:26.756Z,100637.78
2022-11-28T20:59:43.225Z,100640.00
2022-11-28T21:02:11.514Z,100648.44
2022-11-28T21:04:42.921Z,100646.38
2022-11-28T21:07:12.056Z,100636.13
2022-11-28T21:09:40.944Z,100645.19
2022-11-28T21:12:07.823Z,100653.16
2022-11-28T21:17:47.497Z,100661.34
2022-11-28T21:20:16.319Z,100657.50
2022-11-28T21:22:45.613Z,100659.56
2022-11-28T21:25:14.523Z,100654.63
2022-11-28T21:27:43.921Z,100653.13
2022-11-28T21:30:10.944Z,100653.66
2022-11-28T21:32:39.985Z,100657.34
2022-11-28T21:35:06.943Z,100655.38
2022-11-28T21:37:35.952Z,100643.88
2022-11-28T21:40:02.713Z,100653.06
2022-11-28T21:42:29.488Z,100650.31
2022-11-28T21:45:01.441Z,100644.91
2022-11-28T21:47:30.502Z,100649.78
2022-11-28T21:49:59.398Z,100649.97
2022-11-28T21:52:26.027Z,100651.91
2022-11-28T21:54:57.444Z,100654.72
2022-11-28T21:57:28.999Z,100648.25
2022-11-28T21:59:58.334Z,100657.56
2022-11-28T22:02:30.392Z,100651.63
2022-11-28T22:04:59.345Z,100649.75
2022-11-28T22:07:26.094Z,100657.22
2022-11-28T22:09:55.062Z,100649.84
2022-11-28T22:12:21.693Z,100641.44
2022-11-28T22:14:48.749Z,100646.88
2022-11-28T22:17:15.572Z,100652.75
2022-11-28T22:19:42.059Z,100646.34
2022-11-28T22:22:14.192Z,100648.97
2022-11-28T22:24:41.372Z,100640.06
2022-11-28T22:27:08.164Z,100645.72
2022-11-28T22:29:39.584Z,100656.78
2022-11-28T22:32:11.129Z,100653.44
2022-11-28T22:34:40.062Z,100651.16
2022-11-28T22:37:07.448Z,100650.53
2022-11-28T22:39:40.724Z,100645.56
2022-11-28T22:42:09.969Z,100645.78
2022-11-28T22:44:36.519Z,100644.78
2022-11-28T22:47:05.471Z,100646.22
2022-11-28T22:49:32.089Z,100643.63
2022-11-28T22:52:08.429Z,100643.44
2022-11-28T22:54:35.036Z,100645.78
2022-11-28T22:57:04.242Z,100647.69
2022-11-28T22:59:35.521Z,100649.13
2022-11-28T23:02:03.377Z,100652.56
2022-11-28T23:04:30.241Z,100645.41
2022-11-28T23:06:56.918Z,100647.31
2022-11-28T23:09:23.642Z,100653.81
2022-11-28T23:11:50.438Z,100642.72
2022-11-28T23:14:17.136Z,100646.31
2022-11-28T23:16:49.757Z,100643.06
2022-11-28T23:19:19.396Z,100644.56
2022-11-28T23:21:50.451Z,100649.31
2022-11-28T23:24:20.823Z,100653.44
2022-11-28T23:26:49.502Z,100655.84
2022-11-28T23:29:16.951Z,100650.22
2022-11-28T23:31:47.219Z,100649.22
2022-11-28T23:34:16.998Z,100654.69
2022-11-28T23:36:49.154Z,100653.09
2022-11-28T23:39:22.963Z,100655.84
2022-11-28T23:41:55.688Z,100647.03
2022-11-28T23:44:24.884Z,100642.03
2022-11-28T23:46:51.650Z,100638.41
2022-11-28T23:49:18.573Z,100644.66
2022-11-28T23:51:45.265Z,100643.31
2022-11-28T23:54:14.921Z,100644.16
2022-11-28T23:56:44.178Z,100629.47
2022-11-28T23:59:11.902Z,100627.47
